sensor_id;sensor_type;location;lat;lon;timestamp;P1;durP1;ratioP1;P2;durP2;ratioP2
75912;SDS011;64592;52.168;21.040;2023-07-24T00:02:47;8.63;;;4.45;;
75912;SDS011;64592;52.168;21.040;2023-07-24T00:07:50;6.57;;;4.07;;
75912;SDS011;64592;52.168;21.040;2023-07-24T00:12:52;7.70;;;4.65;;
75912;SDS011;64592;52.168;21.040;2023-07-24T00:17:53;8.32;;;4.75;;
75912;SDS011;64592;52.168;21.040;2023-07-24T00:22:56;6.82;;;4.65;;
75912;SDS011;64592;52.168;21.040;2023-07-24T00:27:58;7.88;;;4.80;;
75912;SDS011;64592;52.168;21.040;2023-07-24T00:33:00;6.38;;;4.47;;
75912;SDS011;64592;52.168;21.040;2023-07-24T00:38:03;8.32;;;4.40;;
75912;SDS011;64592;52.168;21.040;2023-07-24T00:43:04;6.70;;;4.32;;
75912;SDS011;64592;52.168;21.040;2023-07-24T00:48:06;7.15;;;4.50;;
75912;SDS011;64592;52.168;21.040;2023-07-24T00:53:09;9.90;;;4.88;;
75912;SDS011;64592;52.168;21.040;2023-07-24T00:58:12;7.65;;;4.75;;
75912;SDS011;64592;52.168;21.040;2023-07-24T01:03:14;6.93;;;4.80;;
75912;SDS011;64592;52.168;21.040;2023-07-24T01:08:17;9.63;;;5.38;;
75912;SDS011;64592;52.168;21.040;2023-07-24T01:13:20;6.72;;;4.38;;
75912;SDS011;64592;52.168;21.040;2023-07-24T01:18:26;8.20;;;4.68;;
75912;SDS011;64592;52.168;21.040;2023-07-24T01:23:37;6.78;;;4.50;;
75912;SDS011;64592;52.168;21.040;2023-07-24T01:28:47;6.85;;;4.28;;
75912;SDS011;64592;52.168;21.040;2023-07-24T01:33:48;5.55;;;4.22;;
75912;SDS011;64592;52.168;21.040;2023-07-24T01:38:50;7.00;;;4.10;;
75912;SDS011;64592;52.168;21.040;2023-07-24T01:43:53;7.22;;;4.30;;
75912;SDS011;64592;52.168;21.040;2023-07-24T01:48:55;6.80;;;4.10;;
75912;SDS011;64592;52.168;21.040;2023-07-24T01:53:56;7.85;;;4.43;;
75912;SDS011;64592;52.168;21.040;2023-07-24T01:58:59;7.35;;;4.13;;
75912;SDS011;64592;52.168;21.040;2023-07-24T02:04:01;9.35;;;4.15;;
75912;SDS011;64592;52.168;21.040;2023-07-24T02:09:03;7.95;;;3.83;;
75912;SDS011;64592;52.168;21.040;2023-07-24T02:14:06;13.63;;;4.03;;
75912;SDS011;64592;52.168;21.040;2023-07-24T02:19:07;9.57;;;3.88;;
75912;SDS011;64592;52.168;21.040;2023-07-24T02:24:09;5.93;;;3.33;;
75912;SDS011;64592;52.168;21.040;2023-07-24T02:29:12;6.00;;;3.58;;
75912;SDS011;64592;52.168;21.040;2023-07-24T02:34:14;6.18;;;3.65;;
75912;SDS011;64592;52.168;21.040;2023-07-24T02:39:17;6.45;;;3.63;;
75912;SDS011;64592;52.168;21.040;2023-07-24T02:44:20;6.97;;;3.67;;
75912;SDS011;64592;52.168;21.040;2023-07-24T02:49:21;5.70;;;3.70;;
75912;SDS011;64592;52.168;21.040;2023-07-24T02:54:23;6.03;;;3.90;;
75912;SDS011;64592;52.168;21.040;2023-07-24T02:59:28;6.97;;;3.40;;
75912;SDS011;64592;52.168;21.040;2023-07-24T03:04:31;5.50;;;4.07;;
75912;SDS011;64592;52.168;21.040;2023-07-24T03:09:33;5.22;;;3.45;;
75912;SDS011;64592;52.168;21.040;2023-07-24T03:14:36;6.80;;;3.42;;
75912;SDS011;64592;52.168;21.040;2023-07-24T03:19:37;5.35;;;3.53;;
75912;SDS011;64592;52.168;21.040;2023-07-24T03:24:39;6.07;;;4.13;;
75912;SDS011;64592;52.168;21.040;2023-07-24T03:29:42;5.97;;;4.60;;
75912;SDS011;64592;52.168;21.040;2023-07-24T03:34:44;6.95;;;4.45;;
75912;SDS011;64592;52.168;21.040;2023-07-24T03:39:46;5.68;;;3.35;;
75912;SDS011;64592;52.168;21.040;2023-07-24T03:44:49;5.60;;;3.38;;
75912;SDS011;64592;52.168;21.040;2023-07-24T03:49:50;6.65;;;3.38;;
75912;SDS011;64592;52.168;21.040;2023-07-24T03:54:52;5.43;;;3.00;;
75912;SDS011;64592;52.168;21.040;2023-07-24T03:59:55;7.57;;;2.90;;
75912;SDS011;64592;52.168;21.040;2023-07-24T04:04:57;5.20;;;2.90;;
75912;SDS011;64592;52.168;21.040;2023-07-24T04:09:58;4.40;;;2.75;;
75912;SDS011;64592;52.168;21.040;2023-07-24T04:15:01;8.05;;;3.05;;
75912;SDS011;64592;52.168;21.040;2023-07-24T04:20:04;6.68;;;3.63;;
75912;SDS011;64592;52.168;21.040;2023-07-24T04:25:06;7.40;;;3.15;;
75912;SDS011;64592;52.168;21.040;2023-07-24T04:30:11;5.15;;;3.22;;
75912;SDS011;64592;52.168;21.040;2023-07-24T04:35:13;6.10;;;2.97;;
75912;SDS011;64592;52.168;21.040;2023-07-24T04:40:14;6.25;;;3.28;;
75912;SDS011;64592;52.168;21.040;2023-07-24T04:45:17;5.18;;;3.20;;
75912;SDS011;64592;52.168;21.040;2023-07-24T04:50:19;8.00;;;3.67;;
75912;SDS011;64592;52.168;21.040;2023-07-24T04:55:21;5.25;;;3.13;;
75912;SDS011;64592;52.168;21.040;2023-07-24T05:00:24;5.90;;;3.08;;
75912;SDS011;64592;52.168;21.040;2023-07-24T05:05:26;7.00;;;3.53;;
75912;SDS011;64592;52.168;21.040;2023-07-24T05:10:28;10.70;;;4.28;;
75912;SDS011;64592;52.168;21.040;2023-07-24T05:15:31;6.70;;;3.45;;
75912;SDS011;64592;52.168;21.040;2023-07-24T05:20:33;5.88;;;3.20;;
75912;SDS011;64592;52.168;21.040;2023-07-24T05:25:34;5.93;;;3.45;;
75912;SDS011;64592;52.168;21.040;2023-07-24T05:30:37;5.75;;;3.25;;
75912;SDS011;64592;52.168;21.040;2023-07-24T05:35:39;4.80;;;3.03;;
75912;SDS011;64592;52.168;21.040;2023-07-24T05:40:40;9.13;;;3.40;;
75912;SDS011;64592;52.168;21.040;2023-07-24T05:45:43;5.97;;;3.47;;
75912;SDS011;64592;52.168;21.040;2023-07-24T05:50:45;8.27;;;3.35;;
75912;SDS011;64592;52.168;21.040;2023-07-24T05:55:55;6.15;;;3.03;;
75912;SDS011;64592;52.168;21.040;2023-07-24T06:00:59;7.35;;;3.13;;
75912;SDS011;64592;52.168;21.040;2023-07-24T06:06:02;7.18;;;3.53;;
75912;SDS011;64592;52.168;21.040;2023-07-24T06:11:03;4.97;;;2.80;;
75912;SDS011;64592;52.168;21.040;2023-07-24T06:16:06;5.18;;;3.03;;
75912;SDS011;64592;52.168;21.040;2023-07-24T06:21:08;8.70;;;3.05;;
75912;SDS011;64592;52.168;21.040;2023-07-24T06:26:10;5.85;;;2.88;;
75912;SDS011;64592;52.168;21.040;2023-07-24T06:31:13;7.68;;;3.22;;
75912;SDS011;64592;52.168;21.040;2023-07-24T06:36:14;6.97;;;3.00;;
75912;SDS011;64592;52.168;21.040;2023-07-24T06:41:16;5.80;;;3.13;;
75912;SDS011;64592;52.168;21.040;2023-07-24T06:46:21;4.55;;;2.80;;
75912;SDS011;64592;52.168;21.040;2023-07-24T06:51:23;7.45;;;2.75;;
75912;SDS011;64592;52.168;21.040;2023-07-24T06:56:24;4.38;;;2.50;;
75912;SDS011;64592;52.168;21.040;2023-07-24T07:01:27;7.03;;;2.80;;
75912;SDS011;64592;52.168;21.040;2023-07-24T07:06:29;5.07;;;2.83;;
75912;SDS011;64592;52.168;21.040;2023-07-24T07:11:31;4.60;;;2.95;;
75912;SDS011;64592;52.168;21.040;2023-07-24T07:16:34;6.97;;;2.80;;
75912;SDS011;64592;52.168;21.040;2023-07-24T07:21:36;4.22;;;2.70;;
75912;SDS011;64592;52.168;21.040;2023-07-24T07:26:37;4.28;;;2.63;;
75912;SDS011;64592;52.168;21.040;2023-07-24T07:31:40;6.20;;;2.50;;
75912;SDS011;64592;52.168;21.040;2023-07-24T07:36:42;3.78;;;2.50;;
75912;SDS011;64592;52.168;21.040;2023-07-24T07:41:44;6.45;;;2.47;;
75912;SDS011;64592;52.168;21.040;2023-07-24T07:46:47;4.78;;;2.75;;
75912;SDS011;64592;52.168;21.040;2023-07-24T07:51:48;9.63;;;2.95;;
75912;SDS011;64592;52.168;21.040;2023-07-24T07:56:50;3.80;;;2.63;;
75912;SDS011;64592;52.168;21.040;2023-07-24T08:01:54;6.30;;;3.22;;
75912;SDS011;64592;52.168;21.040;2023-07-24T08:06:56;4.45;;;2.50;;
75912;SDS011;64592;52.168;21.040;2023-07-24T08:11:57;4.40;;;2.65;;
75912;SDS011;64592;52.168;21.040;2023-07-24T08:17:01;4.40;;;2.53;;
75912;SDS011;64592;52.168;21.040;2023-07-24T08:22:02;4.88;;;2.97;;
75912;SDS011;64592;52.168;21.040;2023-07-24T08:27:05;4.63;;;2.60;;
75912;SDS011;64592;52.168;21.040;2023-07-24T08:32:09;5.50;;;2.45;;
75912;SDS011;64592;52.168;21.040;2023-07-24T08:37:11;4.05;;;2.40;;
75912;SDS011;64592;52.168;21.040;2023-07-24T08:42:13;5.30;;;2.65;;
75912;SDS011;64592;52.168;21.040;2023-07-24T08:47:16;4.53;;;2.60;;
75912;SDS011;64592;52.168;21.040;2023-07-24T08:52:18;4.20;;;2.47;;
75912;SDS011;64592;52.168;21.040;2023-07-24T08:57:20;4.72;;;2.45;;
75912;SDS011;64592;52.168;21.040;2023-07-24T09:02:23;4.28;;;2.63;;
75912;SDS011;64592;52.168;21.040;2023-07-24T09:07:25;5.40;;;2.55;;
75912;SDS011;64592;52.168;21.040;2023-07-24T09:12:27;4.13;;;2.58;;
75912;SDS011;64592;52.168;21.040;2023-07-24T09:17:30;6.07;;;2.75;;
75912;SDS011;64592;52.168;21.040;2023-07-24T09:22:31;4.28;;;2.50;;
75912;SDS011;64592;52.168;21.040;2023-07-24T09:27:33;5.05;;;3.72;;
75912;SDS011;64592;52.168;21.040;2023-07-24T09:32:36;3.35;;;2.20;;
75912;SDS011;64592;52.168;21.040;2023-07-24T09:37:38;5.28;;;2.60;;
75912;SDS011;64592;52.168;21.040;2023-07-24T09:42:40;3.13;;;2.40;;
75912;SDS011;64592;52.168;21.040;2023-07-24T09:47:43;4.20;;;2.65;;
75912;SDS011;64592;52.168;21.040;2023-07-24T09:52:48;3.90;;;2.58;;
75912;SDS011;64592;52.168;21.040;2023-07-24T09:57:51;3.50;;;2.50;;
75912;SDS011;64592;52.168;21.040;2023-07-24T10:02:56;4.72;;;2.78;;
75912;SDS011;64592;52.168;21.040;2023-07-24T10:07:59;4.55;;;2.78;;
75912;SDS011;64592;52.168;21.040;2023-07-24T10:13:01;4.47;;;2.53;;
75912;SDS011;64592;52.168;21.040;2023-07-24T10:18:05;4.95;;;2.63;;
75912;SDS011;64592;52.168;21.040;2023-07-24T10:23:09;6.22;;;3.28;;
75912;SDS011;64592;52.168;21.040;2023-07-24T10:28:12;6.13;;;2.65;;
75912;SDS011;64592;52.168;21.040;2023-07-24T10:33:18;4.13;;;2.70;;
75912;SDS011;64592;52.168;21.040;2023-07-24T10:38:31;5.65;;;3.60;;
75912;SDS011;64592;52.168;21.040;2023-07-24T10:43:41;5.18;;;3.10;;
75912;SDS011;64592;52.168;21.040;2023-07-24T10:48:46;5.70;;;3.53;;
75912;SDS011;64592;52.168;21.040;2023-07-24T10:53:49;5.10;;;3.15;;
75912;SDS011;64592;52.168;21.040;2023-07-24T10:58:51;6.63;;;3.08;;
75912;SDS011;64592;52.168;21.040;2023-07-24T11:03:54;5.47;;;3.00;;
75912;SDS011;64592;52.168;21.040;2023-07-24T11:08:56;4.82;;;3.17;;
75912;SDS011;64592;52.168;21.040;2023-07-24T11:14:00;4.65;;;3.00;;
75912;SDS011;64592;52.168;21.040;2023-07-24T11:19:04;6.55;;;3.40;;
75912;SDS011;64592;52.168;21.040;2023-07-24T11:24:06;7.13;;;4.45;;
75912;SDS011;64592;52.168;21.040;2023-07-24T11:29:10;6.82;;;2.92;;
75912;SDS011;64592;52.168;21.040;2023-07-24T11:34:14;7.88;;;3.92;;
75912;SDS011;64592;52.168;21.040;2023-07-24T11:39:21;4.53;;;3.22;;
75912;SDS011;64592;52.168;21.040;2023-07-24T11:44:26;5.32;;;3.08;;
75912;SDS011;64592;52.168;21.040;2023-07-24T11:49:30;5.38;;;3.50;;
75912;SDS011;64592;52.168;21.040;2023-07-24T11:54:33;5.80;;;3.00;;
75912;SDS011;64592;52.168;21.040;2023-07-24T11:59:37;6.47;;;3.13;;
75912;SDS011;64592;52.168;21.040;2023-07-24T12:04:41;5.45;;;2.85;;
75912;SDS011;64592;52.168;21.040;2023-07-24T12:09:49;7.65;;;2.95;;
75912;SDS011;64592;52.168;21.040;2023-07-24T12:14:52;4.78;;;3.30;;
75912;SDS011;64592;52.168;21.040;2023-07-24T12:19:55;6.55;;;3.45;;
75912;SDS011;64592;52.168;21.040;2023-07-24T12:24:59;7.97;;;3.35;;
75912;SDS011;64592;52.168;21.040;2023-07-24T12:30:00;5.25;;;3.35;;
75912;SDS011;64592;52.168;21.040;2023-07-24T12:35:04;4.68;;;3.13;;
75912;SDS011;64592;52.168;21.040;2023-07-24T12:40:07;4.63;;;3.00;;
75912;SDS011;64592;52.168;21.040;2023-07-24T12:45:09;5.18;;;3.13;;
75912;SDS011;64592;52.168;21.040;2023-07-24T12:50:12;6.60;;;3.60;;
75912;SDS011;64592;52.168;21.040;2023-07-24T12:55:14;6.50;;;3.63;;
75912;SDS011;64592;52.168;21.040;2023-07-24T13:00:16;5.60;;;3.33;;
75912;SDS011;64592;52.168;21.040;2023-07-24T13:05:19;5.63;;;3.22;;
75912;SDS011;64592;52.168;21.040;2023-07-24T13:10:21;4.90;;;3.20;;
75912;SDS011;64592;52.168;21.040;2023-07-24T13:15:22;7.68;;;3.50;;
75912;SDS011;64592;52.168;21.040;2023-07-24T13:20:25;8.80;;;3.50;;
75912;SDS011;64592;52.168;21.040;2023-07-24T13:25:27;5.05;;;2.92;;
75912;SDS011;64592;52.168;21.040;2023-07-24T13:30:29;6.28;;;3.00;;
75912;SDS011;64592;52.168;21.040;2023-07-24T13:35:32;5.30;;;2.90;;
75912;SDS011;64592;52.168;21.040;2023-07-24T13:40:34;4.85;;;3.25;;
75912;SDS011;64592;52.168;21.040;2023-07-24T13:45:35;5.18;;;3.38;;
75912;SDS011;64592;52.168;21.040;2023-07-24T13:50:38;5.55;;;3.17;;
75912;SDS011;64592;52.168;21.040;2023-07-24T13:55:40;5.35;;;3.28;;
75912;SDS011;64592;52.168;21.040;2023-07-24T14:00:42;5.53;;;3.80;;
75912;SDS011;64592;52.168;21.040;2023-07-24T14:05:45;7.30;;;3.75;;
75912;SDS011;64592;52.168;21.040;2023-07-24T14:10:47;7.38;;;4.15;;
75912;SDS011;64592;52.168;21.040;2023-07-24T14:15:48;4.28;;;3.10;;
75912;SDS011;64592;52.168;21.040;2023-07-24T14:20:51;4.22;;;3.03;;
75912;SDS011;64592;52.168;21.040;2023-07-24T14:25:55;4.78;;;2.90;;
75912;SDS011;64592;52.168;21.040;2023-07-24T14:30:57;4.88;;;3.03;;
75912;SDS011;64592;52.168;21.040;2023-07-24T14:36:00;4.88;;;2.90;;
75912;SDS011;64592;52.168;21.040;2023-07-24T14:41:02;4.20;;;3.17;;
75912;SDS011;64592;52.168;21.040;2023-07-24T14:46:03;6.22;;;3.40;;
75912;SDS011;64592;52.168;21.040;2023-07-24T14:51:06;6.95;;;3.53;;
75912;SDS011;64592;52.168;21.040;2023-07-24T14:56:08;5.15;;;3.35;;
75912;SDS011;64592;52.168;21.040;2023-07-24T15:01:10;4.95;;;3.25;;
75912;SDS011;64592;52.168;21.040;2023-07-24T15:06:13;9.30;;;4.18;;
75912;SDS011;64592;52.168;21.040;2023-07-24T15:11:14;7.65;;;4.38;;
75912;SDS011;64592;52.168;21.040;2023-07-24T15:16:16;5.03;;;3.30;;
75912;SDS011;64592;52.168;21.040;2023-07-24T15:21:19;8.38;;;4.25;;
75912;SDS011;64592;52.168;21.040;2023-07-24T15:26:21;5.25;;;3.60;;
75912;SDS011;64592;52.168;21.040;2023-07-24T15:31:22;6.88;;;3.90;;
75912;SDS011;64592;52.168;21.040;2023-07-24T15:36:25;9.63;;;3.80;;
75912;SDS011;64592;52.168;21.040;2023-07-24T15:41:27;7.65;;;3.72;;
75912;SDS011;64592;52.168;21.040;2023-07-24T15:46:29;7.38;;;5.07;;
75912;SDS011;64592;52.168;21.040;2023-07-24T15:51:33;8.35;;;4.28;;
75912;SDS011;64592;52.168;21.040;2023-07-24T15:56:34;6.47;;;3.72;;
75912;SDS011;64592;52.168;21.040;2023-07-24T16:01:36;6.38;;;4.05;;
75912;SDS011;64592;52.168;21.040;2023-07-24T16:06:39;5.88;;;4.30;;
75912;SDS011;64592;52.168;21.040;2023-07-24T16:11:41;11.18;;;4.68;;
75912;SDS011;64592;52.168;21.040;2023-07-24T16:16:43;7.30;;;4.28;;
75912;SDS011;64592;52.168;21.040;2023-07-24T16:21:46;6.32;;;4.03;;
75912;SDS011;64592;52.168;21.040;2023-07-24T16:26:50;11.20;;;3.85;;
75912;SDS011;64592;52.168;21.040;2023-07-24T16:31:51;6.65;;;4.38;;
75912;SDS011;64592;52.168;21.040;2023-07-24T16:36:54;5.82;;;3.80;;
75912;SDS011;64592;52.168;21.040;2023-07-24T16:41:56;8.02;;;4.20;;
75912;SDS011;64592;52.168;21.040;2023-07-24T16:46:58;8.38;;;4.47;;
75912;SDS011;64592;52.168;21.040;2023-07-24T16:52:01;6.07;;;4.03;;
75912;SDS011;64592;52.168;21.040;2023-07-24T16:57:03;7.00;;;3.92;;
75912;SDS011;64592;52.168;21.040;2023-07-24T17:02:06;6.57;;;3.80;;
75912;SDS011;64592;52.168;21.040;2023-07-24T17:07:09;9.00;;;4.68;;
75912;SDS011;64592;52.168;21.040;2023-07-24T17:12:10;8.15;;;5.50;;
75912;SDS011;64592;52.168;21.040;2023-07-24T17:17:12;9.27;;;5.15;;
75912;SDS011;64592;52.168;21.040;2023-07-24T17:22:15;13.20;;;5.53;;
75912;SDS011;64592;52.168;21.040;2023-07-24T17:27:17;9.02;;;5.57;;
75912;SDS011;64592;52.168;21.040;2023-07-24T17:32:18;10.38;;;5.75;;
75912;SDS011;64592;52.168;21.040;2023-07-24T17:37:23;12.68;;;5.63;;
75912;SDS011;64592;52.168;21.040;2023-07-24T17:42:25;12.80;;;5.80;;
75912;SDS011;64592;52.168;21.040;2023-07-24T17:47:27;12.50;;;5.80;;
75912;SDS011;64592;52.168;21.040;2023-07-24T17:52:30;11.88;;;5.63;;
75912;SDS011;64592;52.168;21.040;2023-07-24T17:57:31;9.95;;;5.75;;
75912;SDS011;64592;52.168;21.040;2023-07-24T18:02:33;13.48;;;6.20;;
75912;SDS011;64592;52.168;21.040;2023-07-24T18:07:36;10.60;;;6.25;;
75912;SDS011;64592;52.168;21.040;2023-07-24T18:12:38;9.38;;;5.78;;
75912;SDS011;64592;52.168;21.040;2023-07-24T18:17:40;11.40;;;5.50;;
75912;SDS011;64592;52.168;21.040;2023-07-24T18:22:45;11.27;;;5.68;;
75912;SDS011;64592;52.168;21.040;2023-07-24T18:27:46;15.20;;;5.93;;
75912;SDS011;64592;52.168;21.040;2023-07-24T18:32:48;11.52;;;5.97;;
75912;SDS011;64592;52.168;21.040;2023-07-24T18:37:51;11.20;;;6.32;;
75912;SDS011;64592;52.168;21.040;2023-07-24T18:42:53;12.15;;;5.88;;
75912;SDS011;64592;52.168;21.040;2023-07-24T18:47:54;9.45;;;5.75;;
75912;SDS011;64592;52.168;21.040;2023-07-24T18:52:59;10.77;;;5.82;;
75912;SDS011;64592;52.168;21.040;2023-07-24T18:58:01;12.02;;;6.35;;
75912;SDS011;64592;52.168;21.040;2023-07-24T19:03:02;9.45;;;5.50;;
75912;SDS011;64592;52.168;21.040;2023-07-24T19:08:05;19.02;;;5.78;;
75912;SDS011;64592;52.168;21.040;2023-07-24T19:13:07;13.10;;;6.32;;
75912;SDS011;64592;52.168;21.040;2023-07-24T19:18:09;10.95;;;5.53;;
75912;SDS011;64592;52.168;21.040;2023-07-24T19:23:12;10.05;;;5.90;;
75912;SDS011;64592;52.168;21.040;2023-07-24T19:28:13;8.82;;;5.43;;
75912;SDS011;64592;52.168;21.040;2023-07-24T19:33:15;13.45;;;5.25;;
75912;SDS011;64592;52.168;21.040;2023-07-24T19:38:18;7.38;;;4.15;;
75912;SDS011;64592;52.168;21.040;2023-07-24T19:43:20;8.35;;;4.90;;
75912;SDS011;64592;52.168;21.040;2023-07-24T19:48:23;8.88;;;4.82;;
75912;SDS011;64592;52.168;21.040;2023-07-24T19:53:27;11.07;;;4.97;;
75912;SDS011;64592;52.168;21.040;2023-07-24T19:58:28;9.77;;;4.85;;
75912;SDS011;64592;52.168;21.040;2023-07-24T20:03:30;8.65;;;4.53;;
75912;SDS011;64592;52.168;21.040;2023-07-24T20:08:33;9.63;;;4.47;;
75912;SDS011;64592;52.168;21.040;2023-07-24T20:13:36;7.65;;;4.38;;
75912;SDS011;64592;52.168;21.040;2023-07-24T20:18:38;8.48;;;4.53;;
75912;SDS011;64592;52.168;21.040;2023-07-24T20:23:41;8.95;;;4.88;;
75912;SDS011;64592;52.168;21.040;2023-07-24T20:28:42;10.85;;;5.65;;
75912;SDS011;64592;52.168;21.040;2023-07-24T20:33:44;10.32;;;5.75;;
75912;SDS011;64592;52.168;21.040;2023-07-24T20:38:47;8.77;;;5.03;;
75912;SDS011;64592;52.168;21.040;2023-07-24T20:43:48;7.70;;;5.13;;
75912;SDS011;64592;52.168;21.040;2023-07-24T20:48:50;8.82;;;4.97;;
75912;SDS011;64592;52.168;21.040;2023-07-24T20:53:53;7.80;;;4.90;;
75912;SDS011;64592;52.168;21.040;2023-07-24T20:58:58;7.43;;;4.68;;
75912;SDS011;64592;52.168;21.040;2023-07-24T21:04:00;9.73;;;4.65;;
75912;SDS011;64592;52.168;21.040;2023-07-24T21:09:03;8.13;;;4.88;;
75912;SDS011;64592;52.168;21.040;2023-07-24T21:14:04;7.80;;;4.55;;
75912;SDS011;64592;52.168;21.040;2023-07-24T21:19:06;9.63;;;5.05;;
75912;SDS011;64592;52.168;21.040;2023-07-24T21:24:09;9.05;;;5.80;;
75912;SDS011;64592;52.168;21.040;2023-07-24T21:29:11;8.68;;;5.15;;
75912;SDS011;64592;52.168;21.040;2023-07-24T21:34:12;9.95;;;5.35;;
75912;SDS011;64592;52.168;21.040;2023-07-24T21:39:16;8.32;;;4.85;;
75912;SDS011;64592;52.168;21.040;2023-07-24T21:44:17;9.13;;;5.80;;
75912;SDS011;64592;52.168;21.040;2023-07-24T21:49:19;10.70;;;5.13;;
75912;SDS011;64592;52.168;21.040;2023-07-24T21:54:22;15.80;;;5.65;;
75912;SDS011;64592;52.168;21.040;2023-07-24T21:59:24;10.18;;;5.10;;
75912;SDS011;64592;52.168;21.040;2023-07-24T22:04:25;7.80;;;5.53;;
75912;SDS011;64592;52.168;21.040;2023-07-24T22:09:29;12.90;;;5.75;;
75912;SDS011;64592;52.168;21.040;2023-07-24T22:14:31;8.85;;;5.32;;
75912;SDS011;64592;52.168;21.040;2023-07-24T22:19:32;9.60;;;5.60;;
75912;SDS011;64592;52.168;21.040;2023-07-24T22:24:36;9.63;;;5.55;;
75912;SDS011;64592;52.168;21.040;2023-07-24T22:29:39;10.75;;;5.43;;
75912;SDS011;64592;52.168;21.040;2023-07-24T22:34:40;9.32;;;5.57;;
75912;SDS011;64592;52.168;21.040;2023-07-24T22:39:44;11.80;;;5.85;;
75912;SDS011;64592;52.168;21.040;2023-07-24T22:44:45;12.32;;;5.88;;
75912;SDS011;64592;52.168;21.040;2023-07-24T22:49:47;9.65;;;6.70;;
75912;SDS011;64592;52.168;21.040;2023-07-24T22:54:50;7.65;;;5.68;;
75912;SDS011;64592;52.168;21.040;2023-07-24T22:59:52;10.65;;;5.68;;
75912;SDS011;64592;52.168;21.040;2023-07-24T23:04:54;10.02;;;6.05;;
75912;SDS011;64592;52.168;21.040;2023-07-24T23:09:57;11.02;;;5.68;;
75912;SDS011;64592;52.168;21.040;2023-07-24T23:14:58;11.50;;;6.18;;
75912;SDS011;64592;52.168;21.040;2023-07-24T23:20:00;9.63;;;6.28;;
75912;SDS011;64592;52.168;21.040;2023-07-24T23:25:04;10.18;;;5.88;;
75912;SDS011;64592;52.168;21.040;2023-07-24T23:30:06;10.20;;;6.57;;
75912;SDS011;64592;52.168;21.040;2023-07-24T23:35:09;10.68;;;5.53;;
75912;SDS011;64592;52.168;21.040;2023-07-24T23:40:12;11.60;;;6.38;;
75912;SDS011;64592;52.168;21.040;2023-07-24T23:45:14;9.05;;;6.07;;
75912;SDS011;64592;52.168;21.040;2023-07-24T23:50:16;13.15;;;5.97;;
75912;SDS011;64592;52.168;21.040;2023-07-24T23:55:19;9.00;;;6.05;;
